Time;durP1;ratioP1;P1;durP2;ratioP2;P2;SDS_P1;SDS_P2;PMS_P1;PMS_P2;Temp;Humidity;BMP_temperature;BMP_pressure;BME280_temperature;BME280_humidity;BME280_pressure;Samples;Min_cycle;Max_cycle;Signal;HPM_P1;HPM_P2
2021/03/12 00:00:41;;;;;;;2.20;0.30;;;7.80;99.90;;;;;;10207444;28;20039;-51
2021/03/12 00:06:10;;;;;;;7.93;0.57;;;7.70;99.90;;;;;;10200891;28;20092;-51
2021/03/12 00:11:31;;;;;;;0.35;0.15;;;7.90;99.90;;;;;;10199728;28;20046;-51
2021/03/12 00:16:52;;;;;;;0.20;0.10;;;7.80;99.90;;;;;;10206501;28;20039;-51
2021/03/12 00:22:13;;;;;;;4.65;0.40;;;7.90;99.90;;;;;;10200065;28;20457;-51
2021/03/12 00:27:34;;;;;;;1.17;0.77;;;7.80;99.90;;;;;;10204731;28;20393;-51
2021/03/12 00:32:55;;;;;;;1.63;0.30;;;7.60;99.90;;;;;;10210024;28;20715;-51
2021/03/12 00:38:16;;;;;;;3.40;0.32;;;7.40;99.90;;;;;;10203784;28;20130;-51
2021/03/12 00:43:38;;;;;;;0.57;0.30;;;7.40;99.90;;;;;;10209046;28;20345;-51
2021/03/12 00:48:59;;;;;;;4.13;0.65;;;7.40;99.90;;;;;;10207129;28;20044;-51
2021/03/12 00:54:20;;;;;;;0.57;0.15;;;7.40;99.90;;;;;;10192725;28;20069;-51
2021/03/12 00:59:41;;;;;;;0.47;0.20;;;7.40;99.90;;;;;;10209778;28;20647;-51
2021/03/12 01:05:03;;;;;;;0.68;0.17;;;7.40;99.90;;;;;;10205066;28;20133;-51
2021/03/12 01:10:25;;;;;;;1.30;0.35;;;7.30;99.90;;;;;;10212439;28;20524;-51
2021/03/12 01:15:46;;;;;;;6.85;0.65;;;7.30;99.90;;;;;;10209943;28;20478;-51
2021/03/12 01:21:07;;;;;;;3.28;0.65;;;7.10;99.90;;;;;;10212065;28;20419;-51
2021/03/12 01:26:28;;;;;;;0.85;0.20;;;7.00;99.90;;;;;;10205470;28;20531;-51
2021/03/12 01:31:49;;;;;;;0.80;0.20;;;7.10;99.90;;;;;;10207691;28;20442;-51
2021/03/12 01:37:11;;;;;;;11.02;1.27;;;7.00;99.90;;;;;;10201163;28;20047;-51
2021/03/12 01:42:32;;;;;;;2.17;0.55;;;6.90;99.90;;;;;;10209823;28;20111;-51
2021/03/12 01:47:53;;;;;;;2.60;0.30;;;6.90;99.90;;;;;;10202831;28;20388;-51
2021/03/12 01:53:15;;;;;;;3.38;0.30;;;7.10;99.90;;;;;;10206547;28;20031;-51
2021/03/12 01:58:36;;;;;;;3.20;1.55;;;7.00;99.90;;;;;;10212926;28;20463;-51
2021/03/12 02:03:57;;;;;;;0.88;0.40;;;7.10;99.90;;;;;;10203827;28;22063;-51
2021/03/12 02:09:19;;;;;;;3.17;0.40;;;7.20;99.90;;;;;;10196247;28;20043;-51
2021/03/12 02:14:59;;;;;;;1.02;0.55;;;7.20;99.90;;;;;;10203459;28;20538;-51
2021/03/12 02:20:41;;;;;;;6.40;2.53;;;7.10;99.90;;;;;;10203521;28;20541;-51
2021/03/12 02:26:08;;;;;;;2.58;0.77;;;7.10;99.90;;;;;;10203435;28;20114;-51
2021/03/12 02:31:34;;;;;;;4.75;0.52;;;7.00;99.90;;;;;;10201425;28;20035;-51
2021/03/12 02:36:58;;;;;;;0.32;0.20;;;7.00;99.90;;;;;;10203758;28;20806;-51
2021/03/12 02:42:20;;;;;;;7.20;0.55;;;7.00;99.90;;;;;;10202158;28;20530;-51
2021/03/12 02:47:42;;;;;;;3.13;0.30;;;6.90;99.90;;;;;;10201399;28;20495;-51
2021/03/12 02:53:04;;;;;;;2.97;0.40;;;6.70;99.90;;;;;;10207696;28;20439;-51
2021/03/12 02:58:25;;;;;;;1.20;0.77;;;6.70;99.90;;;;;;10204236;28;20110;-51
2021/03/12 03:03:48;;;;;;;1.75;0.47;;;6.50;99.90;;;;;;10202974;28;20154;-50
2021/03/12 03:09:10;;;;;;;1.02;0.40;;;6.40;99.90;;;;;;10207385;28;20099;-51
2021/03/12 03:14:31;;;;;;;1.70;0.40;;;6.40;99.90;;;;;;10206656;28;20039;-50
2021/03/12 03:19:53;;;;;;;0.43;0.25;;;6.40;99.90;;;;;;10204794;28;20055;-51
2021/03/12 03:25:14;;;;;;;0.30;0.10;;;6.40;99.90;;;;;;10201373;28;20142;-50
2021/03/12 03:30:35;;;;;;;4.75;0.40;;;6.30;99.90;;;;;;10203047;28;20043;-50
2021/03/12 03:35:57;;;;;;;0.52;0.20;;;6.30;99.90;;;;;;10199411;28;20043;-50
2021/03/12 03:41:19;;;;;;;0.13;0.00;;;6.20;99.90;;;;;;10205995;28;20055;-50
2021/03/12 03:46:43;;;;;;;1.42;0.13;;;6.20;99.90;;;;;;10201989;28;20154;-50
2021/03/12 03:52:07;;;;;;;0.30;0.10;;;6.30;99.90;;;;;;10202818;28;20042;-50
2021/03/12 03:57:29;;;;;;;3.28;0.50;;;6.20;99.90;;;;;;10203941;28;20089;-50
2021/03/12 04:02:50;;;;;;;3.67;0.45;;;6.20;99.90;;;;;;10207147;28;20035;-50
2021/03/12 04:08:11;;;;;;;0.08;0.08;;;6.10;99.90;;;;;;10207501;28;20107;-50
2021/03/12 04:13:32;;;;;;;4.72;0.40;;;6.10;99.90;;;;;;10205873;28;20040;-50
2021/03/12 04:18:54;;;;;;;9.98;1.02;;;6.10;99.90;;;;;;10198594;28;20047;-50
2021/03/12 04:24:15;;;;;;;2.80;0.20;;;6.10;99.90;;;;;;10198874;28;20224;-50
2021/03/12 04:29:37;;;;;;;1.77;0.30;;;6.10;99.90;;;;;;10207440;28;20348;-50
2021/03/12 04:34:58;;;;;;;0.38;0.13;;;6.10;99.90;;;;;;10201583;28;20043;-50
2021/03/12 04:40:20;;;;;;;0.65;0.25;;;6.10;99.90;;;;;;10208861;28;20126;-50
2021/03/12 04:45:41;;;;;;;2.17;0.20;;;6.20;99.90;;;;;;10198938;29;20054;-50
2021/03/12 04:51:05;;;;;;;0.93;0.40;;;6.10;99.90;;;;;;10203617;29;20040;-50
2021/03/12 04:56:26;;;;;;;26.23;2.80;;;6.10;99.90;;;;;;10191864;28;20048;-50
2021/03/12 05:01:48;;;;;;;0.95;0.30;;;6.00;99.90;;;;;;10201893;28;20039;-50
2021/03/12 05:07:09;;;;;;;2.10;0.22;;;5.90;99.90;;;;;;10206145;28;20039;-50
2021/03/12 05:12:31;;;;;;;3.72;0.40;;;5.80;99.90;;;;;;10207350;28;20051;-50
2021/03/12 05:17:52;;;;;;;2.42;0.35;;;5.80;99.90;;;;;;10208728;28;20436;-50
2021/03/12 05:23:13;;;;;;;1.55;0.93;;;5.80;99.90;;;;;;10207557;29;20047;-50
2021/03/12 05:28:35;;;;;;;5.95;1.13;;;5.90;99.90;;;;;;10212033;28;20491;-50
2021/03/12 05:33:56;;;;;;;4.82;0.40;;;5.90;99.90;;;;;;10205562;29;20058;-50
2021/03/12 05:39:19;;;;;;;0.32;0.13;;;5.90;99.90;;;;;;10210844;28;20043;-50
2021/03/12 05:44:41;;;;;;;2.70;1.35;;;5.70;99.90;;;;;;10207802;28;20499;-50
2021/03/12 05:50:06;;;;;;;1.90;0.45;;;5.80;99.90;;;;;;10216837;28;20054;-50
2021/03/12 05:55:29;;;;;;;9.65;0.65;;;5.80;99.90;;;;;;10208074;28;20122;-50
2021/03/12 06:00:51;;;;;;;5.22;0.90;;;5.70;99.90;;;;;;10210300;28;20047;-50
2021/03/12 06:06:12;;;;;;;4.32;0.60;;;5.80;99.90;;;;;;10206541;28;20091;-50
2021/03/12 06:11:33;;;;;;;2.25;1.23;;;5.80;99.90;;;;;;10206433;28;20187;-50
2021/03/12 06:16:54;;;;;;;1.77;0.75;;;5.80;99.90;;;;;;10205672;28;20055;-50
2021/03/12 06:22:15;;;;;;;2.85;0.38;;;5.80;99.90;;;;;;10208969;28;20050;-50
2021/03/12 06:27:36;;;;;;;0.20;0.17;;;5.90;99.90;;;;;;10206019;28;20127;-50
2021/03/12 06:32:57;;;;;;;1.65;0.32;;;5.80;99.90;;;;;;10207784;28;20637;-50
2021/03/12 06:38:18;;;;;;;1.38;0.47;;;5.60;99.90;;;;;;10204243;28;20055;-50
2021/03/12 06:43:39;;;;;;;0.35;0.10;;;5.60;99.90;;;;;;10212267;28;20395;-50
2021/03/12 06:49:01;;;;;;;2.22;0.57;;;5.60;99.90;;;;;;10202846;28;20051;-50
2021/03/12 06:54:23;;;;;;;1.67;0.50;;;5.60;99.90;;;;;;10207727;28;20035;-50
2021/03/12 06:59:44;;;;;;;0.73;0.28;;;5.60;99.90;;;;;;10207348;28;20079;-50
2021/03/12 07:05:06;;;;;;;1.10;0.45;;;5.50;99.90;;;;;;10199042;28;20043;-50
2021/03/12 07:10:34;;;;;;;1.08;0.55;;;5.60;99.90;;;;;;10200389;28;20514;-49
2021/03/12 07:15:57;;;;;;;5.90;2.10;;;5.70;99.90;;;;;;10209055;29;20099;-50
2021/03/12 07:21:25;;;;;;;1.35;0.43;;;5.70;99.90;;;;;;10201386;29;20039;-50
2021/03/12 07:26:55;;;;;;;1.00;0.47;;;5.80;99.90;;;;;;10205002;29;20040;-50
2021/03/12 07:32:23;;;;;;;0.63;0.20;;;5.80;99.90;;;;;;10200597;28;20468;-50
2021/03/12 07:37:45;;;;;;;5.82;0.52;;;5.90;99.90;;;;;;10206907;28;20506;-50
2021/03/12 07:43:08;;;;;;;6.50;0.28;;;6.10;99.90;;;;;;10196954;29;20043;-50
2021/03/12 07:48:31;;;;;;;1.55;0.80;;;6.30;99.90;;;;;;10203639;28;20051;-50
2021/03/12 07:53:56;;;;;;;8.82;0.40;;;6.40;99.90;;;;;;10205749;28;20089;-50
2021/03/12 07:59:17;;;;;;;6.13;0.55;;;6.60;99.90;;;;;;10202260;28;20055;-50
2021/03/12 08:04:38;;;;;;;1.85;0.82;;;6.70;99.90;;;;;;10197918;28;20063;-50
2021/03/12 08:10:15;;;;;;;0.95;0.70;;;6.90;99.90;;;;;;10206630;29;20059;-50
2021/03/12 08:15:36;;;;;;;3.67;0.52;;;7.10;99.90;;;;;;10202404;28;20431;-50
2021/03/12 08:20:57;;;;;;;1.75;0.45;;;7.30;99.90;;;;;;10204343;28;20039;-50
2021/03/12 08:26:56;;;;;;;3.85;0.68;;;7.70;99.90;;;;;;10196733;28;20050;-50
2021/03/12 08:32:37;;;;;;;8.23;1.60;;;7.90;99.90;;;;;;10098438;28;20074;-50
2021/03/12 08:38:00;;;;;;;8.43;1.90;;;7.90;99.90;;;;;;10201645;28;20047;-51
2021/03/12 08:43:24;;;;;;;3.80;1.08;;;8.00;99.90;;;;;;10201381;28;20704;-50
2021/03/12 08:48:48;;;;;;;4.40;0.45;;;8.10;99.90;;;;;;10203566;28;20377;-50
2021/03/12 08:54:09;;;;;;;3.75;0.52;;;8.30;99.90;;;;;;10206565;28;20070;-50
2021/03/12 08:59:30;;;;;;;11.73;0.90;;;8.40;99.90;;;;;;10206767;28;20380;-50
2021/03/12 09:04:51;;;;;;;6.07;0.85;;;8.40;99.90;;;;;;10208598;28;20039;-50
2021/03/12 09:10:25;;;;;;;6.28;0.77;;;8.20;99.90;;;;;;10213597;28;20047;-50
2021/03/12 09:15:47;;;;;;;5.22;0.90;;;8.20;99.90;;;;;;10206266;28;20238;-50
2021/03/12 09:21:10;;;;;;;1.85;0.77;;;8.10;99.90;;;;;;10193895;28;20039;-50
2021/03/12 09:26:33;;;;;;;6.05;1.00;;;8.20;99.90;;;;;;10205665;28;20387;-50
2021/03/12 09:31:54;;;;;;;8.43;1.40;;;8.20;99.90;;;;;;10210504;28;20040;-50
2021/03/12 09:37:15;;;;;;;6.28;0.77;;;8.40;99.90;;;;;;10187175;28;20043;-50
2021/03/12 09:42:36;;;;;;;9.27;0.85;;;8.20;99.90;;;;;;10206276;28;20048;-50
2021/03/12 09:47:57;;;;;;;3.15;1.27;;;8.40;99.90;;;;;;10202436;28;20042;-50
2021/03/12 09:53:20;;;;;;;4.60;1.25;;;8.30;99.90;;;;;;10202253;28;20402;-50
2021/03/12 09:58:41;;;;;;;3.03;0.82;;;8.10;99.90;;;;;;10201910;28;20051;-52
2021/03/12 10:04:03;;;;;;;6.97;0.70;;;7.50;99.90;;;;;;10204382;28;20040;-53
2021/03/12 10:09:24;;;;;;;4.57;0.60;;;7.10;99.90;;;;;;10187893;28;20166;-53
2021/03/12 10:14:47;;;;;;;5.72;1.08;;;6.90;99.90;;;;;;10205699;28;20035;-53
2021/03/12 10:20:18;;;;;;;7.00;1.10;;;6.90;99.90;;;;;;10203846;28;20050;-53
2021/03/12 10:25:46;;;;;;;1.83;0.77;;;6.90;99.90;;;;;;10203316;28;20083;-53
2021/03/12 10:31:07;;;;;;;2.17;0.70;;;7.00;99.90;;;;;;10198818;28;20031;-53
2021/03/12 10:36:28;;;;;;;2.85;0.90;;;7.20;99.90;;;;;;10204511;28;20525;-53
2021/03/12 10:42:02;;;;;;;10.20;1.45;;;7.30;99.90;;;;;;10200350;28;20078;-52
2021/03/12 10:47:23;;;;;;;1.73;0.50;;;7.50;99.90;;;;;;10197559;28;20058;-53
2021/03/12 10:52:44;;;;;;;2.03;0.68;;;7.80;99.90;;;;;;10205286;28;20150;-53
2021/03/12 10:58:05;;;;;;;2.30;0.98;;;7.90;99.90;;;;;;10204708;28;20496;-53
2021/03/12 11:03:27;;;;;;;8.32;1.08;;;7.90;99.90;;;;;;10205494;28;20518;-52
2021/03/12 11:08:49;;;;;;;12.00;0.57;;;8.00;99.90;;;;;;10207886;28;20066;-52
2021/03/12 11:14:10;;;;;;;1.95;1.50;;;8.20;99.90;;;;;;10205811;28;20095;-53
2021/03/12 11:19:31;;;;;;;4.03;0.55;;;8.20;99.90;;;;;;10209614;29;20051;-52
2021/03/12 11:24:52;;;;;;;5.15;0.82;;;8.30;99.90;;;;;;10205497;29;20558;-52
2021/03/12 11:30:17;;;;;;;1.75;0.75;;;8.40;99.90;;;;;;10199343;29;20349;-53
2021/03/12 11:35:38;;;;;;;2.10;1.00;;;8.40;99.90;;;;;;10211246;29;20102;-52
2021/03/12 11:41:00;;;;;;;9.07;1.35;;;8.30;99.90;;;;;;10207522;29;20170;-52
2021/03/12 11:46:21;;;;;;;5.00;1.45;;;8.00;99.90;;;;;;10199016;28;20046;-53
2021/03/12 11:51:42;;;;;;;2.55;1.00;;;7.70;99.90;;;;;;10212133;28;20058;-53
2021/03/12 11:57:04;;;;;;;6.95;2.17;;;7.70;99.90;;;;;;10208564;28;20063;-52
2021/03/12 12:02:24;;;;;;;17.27;2.88;;;7.70;99.90;;;;;;10208841;29;20055;-52
2021/03/12 12:07:45;;;;;;;4.78;1.05;;;7.90;99.90;;;;;;10209931;29;20040;-53
2021/03/12 12:13:06;;;;;;;4.07;1.17;;;8.00;99.90;;;;;;10202093;28;20070;-52
2021/03/12 12:18:27;;;;;;;2.53;0.70;;;8.00;99.90;;;;;;10202451;28;20059;-53
2021/03/12 12:23:49;;;;;;;3.13;1.17;;;8.10;99.90;;;;;;10202119;28;20067;-52
2021/03/12 12:29:10;;;;;;;2.53;1.00;;;8.10;99.90;;;;;;10215185;28;20055;-53
2021/03/12 12:34:31;;;;;;;2.95;0.90;;;8.40;99.90;;;;;;10214596;28;20043;-53
2021/03/12 12:39:52;;;;;;;2.00;0.73;;;8.60;99.90;;;;;;10219800;28;20130;-52
2021/03/12 12:45:14;;;;;;;1.58;0.70;;;8.50;99.90;;;;;;10215950;28;20061;-52
2021/03/12 12:50:35;;;;;;;9.13;0.70;;;8.50;99.90;;;;;;10214988;29;20048;-53
2021/03/12 12:55:56;;;;;;;2.00;1.33;;;8.30;99.90;;;;;;10217210;28;20055;-53
2021/03/12 13:01:17;;;;;;;5.22;1.30;;;8.10;99.90;;;;;;10233458;28;20035;-53
2021/03/12 13:06:38;;;;;;;9.00;0.98;;;7.70;99.90;;;;;;10230776;29;20047;-54
2021/03/12 13:11:59;;;;;;;3.42;0.60;;;7.40;99.90;;;;;;10220116;29;20036;-54
2021/03/12 13:17:23;;;;;;;1.48;0.50;;;7.10;99.90;;;;;;10211828;29;20047;-55
2021/03/12 13:22:46;;;;;;;2.72;0.68;;;6.80;99.90;;;;;;10215141;29;20044;-54
2021/03/12 13:28:07;;;;;;;2.95;0.57;;;6.60;99.90;;;;;;10222269;28;20127;-54
2021/03/12 13:33:29;;;;;;;3.15;1.13;;;6.60;99.90;;;;;;10200303;29;20047;-54
2021/03/12 13:38:50;;;;;;;1.58;0.93;;;6.70;99.90;;;;;;10217232;29;20047;-55
2021/03/12 13:44:14;;;;;;;2.25;0.77;;;6.80;99.90;;;;;;10198563;28;20098;-54
2021/03/12 13:49:35;;;;;;;1.38;0.47;;;6.90;99.90;;;;;;10208575;28;20672;-54
2021/03/12 13:54:56;;;;;;;5.78;0.80;;;6.90;99.90;;;;;;10207946;28;20039;-54
2021/03/12 14:00:18;;;;;;;3.05;0.88;;;6.90;99.90;;;;;;10213853;28;20519;-54
2021/03/12 14:05:39;;;;;;;0.63;0.35;;;7.00;99.90;;;;;;10205168;28;20448;-54
2021/03/12 14:11:00;;;;;;;3.65;0.75;;;7.10;99.90;;;;;;10204551;28;20163;-54
2021/03/12 14:16:21;;;;;;;0.77;0.40;;;7.20;99.90;;;;;;10203381;29;20540;-54
2021/03/12 14:21:43;;;;;;;4.28;0.43;;;7.30;99.90;;;;;;10205512;29;20047;-54
2021/03/12 14:27:04;;;;;;;3.97;1.05;;;7.30;99.90;;;;;;10207524;29;20093;-54
2021/03/12 14:32:25;;;;;;;3.28;0.38;;;7.40;99.90;;;;;;10206341;29;20089;-54
2021/03/12 14:37:46;;;;;;;6.82;1.48;;;7.50;99.90;;;;;;10193731;29;20043;-54
2021/03/12 14:43:07;;;;;;;1.08;0.32;;;7.60;99.90;;;;;;10208624;28;20038;-54
2021/03/12 14:48:29;;;;;;;1.58;0.65;;;7.70;99.90;;;;;;10205737;28;20055;-55
2021/03/12 14:53:51;;;;;;;1.20;0.30;;;7.90;99.90;;;;;;10194290;29;20031;-54
2021/03/12 14:59:11;;;;;;;3.72;0.52;;;8.00;99.90;;;;;;10208940;29;20398;-54
2021/03/12 15:04:32;;;;;;;0.70;0.20;;;8.10;99.90;;;;;;10197421;28;21441;-54
2021/03/12 15:09:53;;;;;;;2.30;0.80;;;8.20;99.90;;;;;;10206215;28;20503;-54
2021/03/12 15:15:15;;;;;;;1.92;0.52;;;8.30;99.90;;;;;;10204792;28;20079;-54
2021/03/12 15:20:36;;;;;;;0.38;0.20;;;8.40;99.90;;;;;;10207007;28;20052;-54
2021/03/12 15:25:57;;;;;;;4.28;0.73;;;8.40;99.90;;;;;;10208800;28;20047;-54
2021/03/12 15:31:18;;;;;;;0.85;0.38;;;8.50;99.90;;;;;;10205221;28;20070;-54
2021/03/12 15:36:39;;;;;;;2.10;0.52;;;8.50;99.90;;;;;;10205999;28;20142;-54
2021/03/12 15:42:01;;;;;;;7.97;0.52;;;8.60;99.90;;;;;;10211329;29;20138;-54
2021/03/12 15:47:22;;;;;;;3.55;0.50;;;8.60;99.90;;;;;;10212039;28;20141;-54
2021/03/12 15:52:43;;;;;;;8.23;3.15;;;8.70;99.90;;;;;;10216516;29;20470;-54
2021/03/12 15:58:04;;;;;;;3.50;0.77;;;8.70;99.90;;;;;;10198329;28;20061;-54
2021/03/12 16:03:25;;;;;;;1.42;0.55;;;8.60;99.90;;;;;;10195980;29;20618;-54
2021/03/12 16:08:46;;;;;;;5.53;0.73;;;8.70;99.90;;;;;;10203905;28;20394;-54
2021/03/12 16:14:07;;;;;;;1.10;0.80;;;8.70;99.90;;;;;;10202791;28;20051;-54
2021/03/12 16:19:28;;;;;;;5.80;1.23;;;8.60;99.90;;;;;;10200442;28;20055;-54
2021/03/12 16:24:49;;;;;;;6.13;0.88;;;8.60;99.90;;;;;;10208508;28;20133;-54
2021/03/12 16:30:11;;;;;;;4.82;0.95;;;8.60;99.90;;;;;;10203564;28;20043;-54
2021/03/12 16:35:32;;;;;;;4.28;1.55;;;8.60;99.90;;;;;;10220453;29;20045;-54
2021/03/12 16:40:53;;;;;;;4.45;0.60;;;8.70;99.90;;;;;;10205510;28;20074;-54
2021/03/12 16:46:14;;;;;;;1.42;0.60;;;8.60;99.90;;;;;;10192267;28;20046;-54
2021/03/12 16:51:35;;;;;;;2.58;0.82;;;8.50;99.90;;;;;;10185845;28;20051;-54
2021/03/12 16:56:56;;;;;;;10.43;1.90;;;8.50;99.90;;;;;;10197767;28;20039;-54
2021/03/12 17:02:19;;;;;;;1.70;0.90;;;8.40;99.90;;;;;;10188137;29;20062;-54
2021/03/12 17:07:40;;;;;;;10.48;2.08;;;8.30;99.90;;;;;;10193305;29;20631;-54
2021/03/12 17:13:01;;;;;;;6.13;2.28;;;8.30;99.90;;;;;;10188956;29;20023;-54
2021/03/12 17:18:22;;;;;;;2.08;1.00;;;8.30;99.90;;;;;;10230944;29;20756;-54
2021/03/12 17:23:43;;;;;;;6.25;1.00;;;8.20;99.90;;;;;;10221525;29;20036;-54
2021/03/12 17:29:05;;;;;;;5.50;1.13;;;8.30;99.90;;;;;;10241091;28;20089;-54
2021/03/12 17:34:26;;;;;;;8.18;0.68;;;8.20;99.90;;;;;;10226024;29;20039;-54
2021/03/12 17:39:47;;;;;;;3.15;1.10;;;8.20;99.90;;;;;;10238007;29;20039;-54
2021/03/12 17:45:09;;;;;;;4.40;1.40;;;8.20;99.90;;;;;;10222656;28;20387;-54
2021/03/12 17:50:30;;;;;;;5.88;0.60;;;8.20;99.90;;;;;;10211275;29;20035;-54
2021/03/12 17:55:51;;;;;;;10.80;1.35;;;8.20;99.90;;;;;;10222690;29;20042;-55
2021/03/12 18:01:12;;;;;;;4.10;0.93;;;8.10;99.90;;;;;;10199515;29;20267;-54
2021/03/12 18:06:33;;;;;;;4.80;1.90;;;8.10;99.90;;;;;;10238900;29;20066;-54
2021/03/12 18:11:54;;;;;;;3.92;0.95;;;8.00;99.90;;;;;;10210096;29;20039;-54
2021/03/12 18:17:15;;;;;;;2.75;1.25;;;8.00;99.90;;;;;;10225202;29;20043;-54
2021/03/12 18:22:37;;;;;;;2.83;0.68;;;8.00;99.90;;;;;;10236591;28;20065;-54
2021/03/12 18:27:58;;;;;;;6.78;0.90;;;7.90;99.90;;;;;;10221572;29;20047;-54
2021/03/12 18:33:19;;;;;;;4.30;0.77;;;7.80;99.90;;;;;;10226628;29;20038;-54
2021/03/12 18:38:40;;;;;;;6.47;1.00;;;7.80;99.90;;;;;;10236716;29;20065;-54
2021/03/12 18:44:01;;;;;;;6.68;1.00;;;7.80;99.90;;;;;;10197888;29;20123;-54
2021/03/12 18:49:23;;;;;;;6.68;1.00;;;7.70;99.90;;;;;;10189549;29;20080;-54
2021/03/12 18:54:44;;;;;;;2.75;1.13;;;7.70;99.90;;;;;;10236979;29;20130;-54
2021/03/12 19:00:08;;;;;;;4.03;1.20;;;7.70;99.90;;;;;;10235137;29;20050;-55
2021/03/12 19:05:29;;;;;;;12.38;1.58;;;7.70;99.90;;;;;;10217368;29;20459;-54
2021/03/12 19:10:51;;;;;;;9.93;1.15;;;7.60;99.90;;;;;;10232897;29;20502;-54
2021/03/12 19:16:11;;;;;;;12.85;2.22;;;7.60;99.90;;;;;;10234481;29;20179;-54
2021/03/12 19:21:32;;;;;;;6.05;2.25;;;7.60;99.90;;;;;;10203545;29;20090;-54
2021/03/12 19:26:53;;;;;;;8.95;1.05;;;7.50;99.90;;;;;;10235060;29;20035;-54
2021/03/12 19:32:14;;;;;;;3.20;1.30;;;7.60;99.90;;;;;;10226204;28;20035;-54
2021/03/12 19:37:36;;;;;;;4.13;1.02;;;7.60;99.90;;;;;;10233535;29;20047;-54
2021/03/12 19:42:57;;;;;;;6.15;1.83;;;7.60;99.90;;;;;;10209081;28;20050;-54
2021/03/12 19:48:18;;;;;;;5.32;2.03;;;7.60;99.90;;;;;;10215093;28;20047;-54
2021/03/12 19:53:39;;;;;;;5.55;0.88;;;7.60;99.90;;;;;;10233757;29;20178;-54
2021/03/12 19:59:00;;;;;;;2.83;0.93;;;7.70;99.90;;;;;;10197432;29;20047;-54
2021/03/12 20:04:22;;;;;;;2.40;0.73;;;7.50;99.90;;;;;;10197947;28;20036;-54
2021/03/12 20:09:43;;;;;;;4.50;0.52;;;7.40;99.90;;;;;;10204338;28;20052;-54
2021/03/12 20:15:06;;;;;;;4.93;0.82;;;7.40;99.90;;;;;;10182071;28;20032;-54
2021/03/12 20:20:27;;;;;;;10.07;1.08;;;7.40;99.90;;;;;;10194052;29;20276;-54
2021/03/12 20:25:49;;;;;;;2.85;1.05;;;7.40;99.90;;;;;;10192110;28;20620;-54
2021/03/12 20:31:10;;;;;;;7.75;0.90;;;7.40;99.90;;;;;;10191583;28;20098;-54
2021/03/12 20:36:32;;;;;;;3.72;0.52;;;7.40;99.90;;;;;;10194291;29;20154;-54
2021/03/12 20:41:53;;;;;;;4.35;0.65;;;7.50;99.90;;;;;;10196152;28;20595;-54
2021/03/12 20:47:14;;;;;;;2.33;0.55;;;7.60;99.90;;;;;;10198901;29;20051;-54
2021/03/12 20:52:35;;;;;;;7.65;2.22;;;7.50;99.90;;;;;;10197945;28;20039;-54
2021/03/12 20:57:56;;;;;;;2.00;0.70;;;7.40;99.90;;;;;;10200874;29;20039;-54
2021/03/12 21:03:17;;;;;;;1.42;0.35;;;7.30;99.90;;;;;;10201486;28;21103;-54
2021/03/12 21:08:38;;;;;;;10.23;1.15;;;7.40;99.90;;;;;;10201729;28;20043;-53
2021/03/12 21:13:59;;;;;;;2.95;0.52;;;7.30;99.90;;;;;;10182811;28;20222;-54
2021/03/12 21:19:20;;;;;;;2.55;0.88;;;7.40;99.90;;;;;;10191402;28;20125;-54
2021/03/12 21:24:41;;;;;;;2.92;0.57;;;7.40;99.90;;;;;;10178187;28;20036;-53
2021/03/12 21:30:09;;;;;;;3.92;1.13;;;7.50;99.90;;;;;;10191433;28;20411;-54
2021/03/12 21:35:30;;;;;;;5.38;1.92;;;7.50;99.90;;;;;;10186548;28;20397;-54
2021/03/12 21:40:51;;;;;;;1.05;0.30;;;7.50;99.90;;;;;;10184476;28;20411;-54
2021/03/12 21:46:13;;;;;;;2.47;1.45;;;7.40;99.90;;;;;;10182359;28;20062;-54
2021/03/12 21:51:34;;;;;;;9.77;0.70;;;7.50;99.90;;;;;;10189664;28;21422;-54
2021/03/12 21:56:55;;;;;;;1.45;0.93;;;7.50;99.90;;;;;;10200245;28;20952;-53
2021/03/12 22:02:16;;;;;;;0.57;0.28;;;7.40;99.90;;;;;;10199868;28;20036;-54
2021/03/12 22:07:38;;;;;;;1.27;0.30;;;7.40;99.90;;;;;;10200641;28;20319;-54
2021/03/12 22:12:59;;;;;;;3.60;1.27;;;7.40;99.90;;;;;;10207556;28;20537;-54
2021/03/12 22:18:20;;;;;;;4.97;0.50;;;7.40;99.90;;;;;;10192165;28;20403;-54
2021/03/12 22:23:41;;;;;;;7.10;2.95;;;7.30;99.90;;;;;;10207572;28;20039;-54
2021/03/12 22:29:02;;;;;;;4.30;0.50;;;7.30;99.90;;;;;;10206786;28;20035;-54
2021/03/12 22:34:23;;;;;;;3.10;0.88;;;7.30;99.90;;;;;;10203893;28;20047;-54
2021/03/12 22:39:44;;;;;;;11.43;2.58;;;7.30;99.90;;;;;;10206650;28;20055;-54
2021/03/12 22:45:07;;;;;;;5.38;0.68;;;7.30;99.90;;;;;;10202260;28;20498;-54
2021/03/12 22:50:31;;;;;;;4.70;0.98;;;7.30;99.90;;;;;;10196516;28;20451;-54
2021/03/12 22:55:52;;;;;;;6.05;1.30;;;7.40;99.90;;;;;;10208575;28;20047;-54
2021/03/12 23:01:13;;;;;;;4.97;0.88;;;7.30;99.90;;;;;;10196318;28;21955;-54
2021/03/12 23:06:34;;;;;;;7.72;1.05;;;7.30;99.90;;;;;;10199940;28;20039;-54
2021/03/12 23:11:56;;;;;;;4.22;1.33;;;7.30;99.90;;;;;;10206071;28;20043;-54
2021/03/12 23:17:16;;;;;;;6.85;0.85;;;7.30;99.90;;;;;;10201000;28;20113;-54
2021/03/12 23:22:37;;;;;;;9.25;1.38;;;7.30;99.90;;;;;;10192920;28;20097;-54
2021/03/12 23:28:01;;;;;;;4.68;0.52;;;7.30;99.90;;;;;;10198511;28;20506;-54
2021/03/12 23:33:24;;;;;;;8.65;1.58;;;7.30;99.90;;;;;;10199775;28;20058;-54
2021/03/12 23:38:46;;;;;;;4.53;0.65;;;7.30;99.90;;;;;;10206761;28;20047;-54
2021/03/12 23:44:08;;;;;;;9.57;0.63;;;7.30;99.90;;;;;;10197079;28;20051;-54
2021/03/12 23:49:29;;;;;;;5.00;2.38;;;7.50;99.90;;;;;;10198109;28;20052;-54
2021/03/12 23:54:50;;;;;;;8.38;0.77;;;7.30;99.90;;;;;;10202395;28;20042;-54
